Spencer, Oklahoma
Current Conditions -  °F | °C
As of 7:58 PM on Wednesday 26 Nov 2014 (Local Time) from KTIK Reporting Station
Clear Clear  
Wind Chill: 35°   Ceiling: Unl
Heat Index: 42°   Visibility: 10mi
Dew Point: 23°   Wind: 14mph
Humidity: 46%   Direction: 360°N
Pressure: 30.34"   Gusts: NA
Location:  35.52°N, 97.38°W
Report Text: KTIK 270158Z AUTO 36012KT 10SM CLR 06/M05 A3034 RMK AO2 SLP287 T00581050
Loading
Personal Weather Stations






























Interactive Weather Map New forecast layout! Learn more

10-Day Weather Forecast

Advertisements
Track Severe Weather on mobile